Flight Track Log - Related Links

Times and Time Zones

All times are in EDT time to prevent confusion due to time zone crossing. See the N32PA flight status page for this flight to view local times or setup timezone preferences in your user account.

Time Position Orientation Groundspeed Altitude Reporting Facility
EDT Latitude Longitude Course Direction KTS MPH feet Rate Location/Type
Wed 05:45:15 PM 38.0781 -87.4886 115° Southeast 212 244 3,000  Level Indianapolis Center
Wed 05:46:17 PM 38.0539 -87.4225 115° Southeast 303 349 6,700 3,242 Climbing Indianapolis Center
Wed 05:47:19 PM 37.9889 -87.3603 143° Southeast 293 337 9,700 2,903 Climbing Indianapolis Center
Wed 05:48:21 PM 37.8986 -87.2794 145° Southeast 331 381 12,700 2,806 Climbing Indianapolis Center
Wed 05:49:23 PM 37.8153 -87.2028 144° Southeast 363 418 15,500 2,661 Climbing Indianapolis Center
Wed 05:50:25 PM 37.7325 -87.1250 143° Southeast 370 426 18,200 2,323 Climbing Indianapolis Center
Wed 05:51:27 PM 37.6461 -87.0494 145° Southeast 376 433 20,300 2,032 Climbing Indianapolis Center
Wed 05:52:29 PM 37.5547 -86.9697 145° Southeast 393 452 22,400 2,032 Climbing Indianapolis Center
Wed 05:53:31 PM 37.4533 -86.8850 146° Southeast 402 463 24,500 1,839 Climbing Indianapolis Center
Wed 05:54:33 PM 37.3539 -86.8017 146° Southeast 420 483 26,200 1,694 Climbing Indianapolis Center
Wed 05:55:35 PM 37.2544 -86.7178 146° Southeast 425 489 28,000 1,548 Climbing Indianapolis Center
Wed 05:56:37 PM 37.1536 -86.6339 146° Southeast 428 493 29,400 1,398 Climbing Indianapolis Center
Wed 05:57:18 PM 37.0825 -86.5736 146° Southeast 432 497 30,400 1,366 Climbing Memphis Center
Wed 05:58:18 PM 36.9778 -86.4875 147° Southeast 439 505 31,700 1,100 Climbing Memphis Center
Wed 05:59:18 PM 36.8728 -86.3994 146° Southeast 449 517 32,600 700 Climbing Memphis Center
Wed 06:00:18 PM 36.7619 -86.3194 150° Southeast 454 522 33,100 650 Climbing Memphis Center
Wed 06:01:18 PM 36.6489 -86.2447 152° Southeast 461 531 33,900 450 Climbing Memphis Center
Wed 06:02:18 PM 36.5253 -86.1583 151° Southeast 467 537 34,000 50 Climbing Memphis Center
Wed 06:03:18 PM 36.4103 -86.0867 153° Southeast 467 537 34,000  Level Memphis Center
Wed 06:03:52 PM 36.3581 -86.0561 155° Southeast 463 533 34,000  Level Indianapolis Center
Wed 06:06:04 PM 36.1047 -85.8942 153° Southeast 448 516 34,000 -188 Level Atlanta Center
Wed 06:07:04 PM 35.9953 -85.8275 154° Southeast 437 503 33,400 -500 Descending Atlanta Center
Wed 06:08:04 PM 35.8836 -85.7558 153° Southeast 443 510 33,000 -200 Descending Atlanta Center
Wed 06:09:04 PM 35.7739 -85.6869 153° Southeast 443 510 33,000  Level Atlanta Center
Wed 06:10:04 PM 35.6644 -85.6183 153° Southeast 443 510 33,000  Level Atlanta Center
Wed 06:11:04 PM 35.5547 -85.5500 153° Southeast 443 510 33,000 -750 Level Atlanta Center
Wed 06:12:04 PM 35.4450 -85.4767 151° Southeast 443 510 31,500 -1,800 Descending Atlanta Center
Wed 06:13:04 PM 35.3394 -85.3856 145° Southeast 448 516 29,400 -1,700 Descending Atlanta Center
Wed 06:14:04 PM 35.2594 -85.2622 128° Southeast 455 524 28,100 -1,850 Descending Atlanta Center
Wed 06:15:04 PM 35.1731 -85.1467 132° Southeast 455 524 25,700 -1,850 Descending Atlanta Center
Wed 06:16:04 PM 35.0586 -85.0944 160° South 444 511 24,400 -1,500 Descending Atlanta Center
Wed 06:17:04 PM 34.9483 -85.0625 167° South 424 488 22,700 -2,450 Descending Atlanta Center
Wed 06:18:04 PM 34.8358 -85.0358 169° South 409 471 19,500 650 Descending Atlanta Center
Wed 06:19:04 PM 34.7358 -85.0194 172° South 396 456 24,000 -3,600 Climbing Atlanta Center
Wed 06:20:04 PM 34.6461 -84.9983 169° South 361 415 12,300 -6,500 Descending Atlanta Center
Wed 06:21:04 PM 34.5503 -84.9869 174° South 328 377 11,000 -950 Descending Atlanta Center
Wed 06:22:04 PM 34.4711 -84.9636 166° South 303 349 10,400 -1,800 Descending Atlanta Center
Wed 06:23:04 PM 34.3919 -84.9400 166° South 291 335 7,400 -3,000 Descending Atlanta Center
Wed 06:25:00 PM 34.2060 -84.8520 165° South  Level FlightAware Approximate
Wed 06:32:00 PM 34.1231 -84.8487 165° South  Level Estimated
Wed 06:33:00 PM 34.1231 -84.8487 165° South  Level Estimated
Wed 06:34:00 PM 34.1231 -84.8487 165° South  Level Estimated
Wed 06:35:00 PM 34.1231 -84.8487 165° South  Level Estimated
Wed 06:36:00 PM 34.1231 -84.8487 165° South  Level Estimated
Wed 06:37:00 PM 34.1231 -84.8487 165° South  Level Estimated
Wed 06:38:00 PM 34.1231 -84.8487 165° South  Level Estimated
Wed 06:39:00 PM 34.1231 -84.8487 165° South  Level Estimated
Wed 06:40:00 PM 34.1231 -84.8487 165° South  Level Estimated
Wed 06:41:00 PM 34.1231 -84.8487 165° South  Level Estimated
Wed 06:42:00 PM 34.1231 -84.8487 165° South  Level Estimated
Wed 06:43:00 PM 34.1231 -84.8487 165° South  Level Estimated
Wed 06:44:00 PM 34.1231 -84.8487 165° South  Level Estimated
Wed 06:45:00 PM 34.1231 -84.8487 165° South  Level Estimated

Login

Don't have an account? Register now (free) for customized features, flight alerts, and more!